sensor_id;sensor_type;location;lat;lon;timestamp;P1;durP1;ratioP1;P2;durP2;ratioP2
12591;SDS011;6361;52.120;5.108;2023-04-01T00:00:58;40.90;;;15.25;;
12591;SDS011;6361;52.120;5.108;2023-04-01T00:03:24;30.13;;;13.30;;
12591;SDS011;6361;52.120;5.108;2023-04-01T00:05:52;34.72;;;12.48;;
12591;SDS011;6361;52.120;5.108;2023-04-01T00:08:17;30.83;;;11.88;;
12591;SDS011;6361;52.120;5.108;2023-04-01T00:10:43;29.05;;;11.85;;
12591;SDS011;6361;52.120;5.108;2023-04-01T00:13:08;33.00;;;13.43;;
12591;SDS011;6361;52.120;5.108;2023-04-01T00:15:34;35.40;;;12.73;;
12591;SDS011;6361;52.120;5.108;2023-04-01T00:18:02;37.25;;;13.77;;
12591;SDS011;6361;52.120;5.108;2023-04-01T00:20:28;36.35;;;13.82;;
12591;SDS011;6361;52.120;5.108;2023-04-01T00:22:53;42.58;;;15.07;;
12591;SDS011;6361;52.120;5.108;2023-04-01T00:25:18;44.10;;;14.63;;
12591;SDS011;6361;52.120;5.108;2023-04-01T00:27:44;36.35;;;16.08;;
12591;SDS011;6361;52.120;5.108;2023-04-01T00:30:09;40.35;;;14.95;;
12591;SDS011;6361;52.120;5.108;2023-04-01T00:32:35;40.72;;;16.15;;
12591;SDS011;6361;52.120;5.108;2023-04-01T00:35:02;42.92;;;17.70;;
12591;SDS011;6361;52.120;5.108;2023-04-01T00:37:28;39.63;;;16.13;;
12591;SDS011;6361;52.120;5.108;2023-04-01T00:39:53;45.95;;;18.70;;
12591;SDS011;6361;52.120;5.108;2023-04-01T00:42:19;45.60;;;18.85;;
12591;SDS011;6361;52.120;5.108;2023-04-01T00:44:45;41.63;;;19.55;;
12591;SDS011;6361;52.120;5.108;2023-04-01T00:47:14;48.22;;;20.38;;
12591;SDS011;6361;52.120;5.108;2023-04-01T00:49:40;41.47;;;18.35;;
12591;SDS011;6361;52.120;5.108;2023-04-01T00:52:08;35.45;;;17.90;;
12591;SDS011;6361;52.120;5.108;2023-04-01T00:54:36;40.40;;;17.80;;
12591;SDS011;6361;52.120;5.108;2023-04-01T00:57:07;35.13;;;18.60;;
12591;SDS011;6361;52.120;5.108;2023-04-01T00:59:45;38.28;;;17.25;;
12591;SDS011;6361;52.120;5.108;2023-04-01T01:02:13;26.42;;;12.85;;
12591;SDS011;6361;52.120;5.108;2023-04-01T01:04:39;30.08;;;15.30;;
12591;SDS011;6361;52.120;5.108;2023-04-01T01:18:02;23.45;;;11.35;;
12591;SDS011;6361;52.120;5.108;2023-04-01T01:37:57;19.77;;;9.93;;
12591;SDS011;6361;52.120;5.108;2023-04-01T01:40:26;24.20;;;10.57;;
12591;SDS011;6361;52.120;5.108;2023-04-01T01:42:54;18.50;;;9.40;;
12591;SDS011;6361;52.120;5.108;2023-04-01T01:45:22;20.80;;;9.20;;
12591;SDS011;6361;52.120;5.108;2023-04-01T01:47:49;22.08;;;9.70;;
12591;SDS011;6361;52.120;5.108;2023-04-01T01:50:15;22.10;;;9.88;;
12591;SDS011;6361;52.120;5.108;2023-04-01T01:52:42;19.40;;;8.70;;
12591;SDS011;6361;52.120;5.108;2023-04-01T01:57:51;17.98;;;8.73;;
12591;SDS011;6361;52.120;5.108;2023-04-01T02:00:18;16.80;;;9.20;;
12591;SDS011;6361;52.120;5.108;2023-04-01T02:02:44;20.58;;;8.57;;
12591;SDS011;6361;52.120;5.108;2023-04-01T02:05:11;17.55;;;8.93;;
12591;SDS011;6361;52.120;5.108;2023-04-01T02:07:41;17.88;;;8.85;;
12591;SDS011;6361;52.120;5.108;2023-04-01T02:10:09;19.08;;;9.02;;
12591;SDS011;6361;52.120;5.108;2023-04-01T02:12:35;15.75;;;8.18;;
12591;SDS011;6361;52.120;5.108;2023-04-01T02:15:06;15.85;;;7.82;;
12591;SDS011;6361;52.120;5.108;2023-04-01T02:17:33;17.52;;;8.10;;
12591;SDS011;6361;52.120;5.108;2023-04-01T02:20:00;16.35;;;7.90;;
12591;SDS011;6361;52.120;5.108;2023-04-01T02:22:40;25.88;;;9.60;;
12591;SDS011;6361;52.120;5.108;2023-04-01T02:25:18;23.80;;;9.90;;
12591;SDS011;6361;52.120;5.108;2023-04-01T02:27:45;24.17;;;9.40;;
12591;SDS011;6361;52.120;5.108;2023-04-01T02:30:12;23.88;;;10.25;;
12591;SDS011;6361;52.120;5.108;2023-04-01T02:32:38;23.10;;;9.57;;
12591;SDS011;6361;52.120;5.108;2023-04-01T02:35:09;21.50;;;9.60;;
12591;SDS011;6361;52.120;5.108;2023-04-01T02:37:35;24.00;;;10.23;;
12591;SDS011;6361;52.120;5.108;2023-04-01T02:40:05;24.75;;;9.90;;
12591;SDS011;6361;52.120;5.108;2023-04-01T02:42:32;19.73;;;8.88;;
12591;SDS011;6361;52.120;5.108;2023-04-01T02:44:58;16.45;;;7.90;;
12591;SDS011;6361;52.120;5.108;2023-04-01T02:47:24;19.95;;;8.68;;
12591;SDS011;6361;52.120;5.108;2023-04-01T02:49:50;18.75;;;8.65;;
12591;SDS011;6361;52.120;5.108;2023-04-01T02:52:15;17.15;;;9.07;;
12591;SDS011;6361;52.120;5.108;2023-04-01T02:54:40;16.13;;;9.13;;
12591;SDS011;6361;52.120;5.108;2023-04-01T02:57:06;16.92;;;8.55;;
12591;SDS011;6361;52.120;5.108;2023-04-01T02:59:31;15.32;;;9.13;;
12591;SDS011;6361;52.120;5.108;2023-04-01T03:01:57;16.13;;;9.13;;
12591;SDS011;6361;52.120;5.108;2023-04-01T03:04:22;17.05;;;9.70;;
12591;SDS011;6361;52.120;5.108;2023-04-01T03:06:48;17.23;;;9.90;;
12591;SDS011;6361;52.120;5.108;2023-04-01T03:09:13;19.50;;;9.43;;
12591;SDS011;6361;52.120;5.108;2023-04-01T03:11:39;17.45;;;10.20;;
12591;SDS011;6361;52.120;5.108;2023-04-01T03:14:05;14.75;;;9.38;;
12591;SDS011;6361;52.120;5.108;2023-04-01T03:16:31;19.63;;;11.13;;
12591;SDS011;6361;52.120;5.108;2023-04-01T03:18:57;17.23;;;9.82;;
12591;SDS011;6361;52.120;5.108;2023-04-01T03:21:25;19.55;;;9.82;;
12591;SDS011;6361;52.120;5.108;2023-04-01T03:23:50;17.38;;;9.43;;
12591;SDS011;6361;52.120;5.108;2023-04-01T03:26:16;19.27;;;8.77;;
12591;SDS011;6361;52.120;5.108;2023-04-01T03:28:41;16.73;;;9.80;;
12591;SDS011;6361;52.120;5.108;2023-04-01T03:31:07;15.23;;;9.07;;
12591;SDS011;6361;52.120;5.108;2023-04-01T03:33:32;16.73;;;9.80;;
12591;SDS011;6361;52.120;5.108;2023-04-01T03:35:58;19.50;;;9.43;;
12591;SDS011;6361;52.120;5.108;2023-04-01T03:38:23;18.00;;;10.10;;
12591;SDS011;6361;52.120;5.108;2023-04-01T03:40:51;18.88;;;10.20;;
12591;SDS011;6361;52.120;5.108;2023-04-01T03:43:16;21.15;;;10.82;;
12591;SDS011;6361;52.120;5.108;2023-04-01T03:45:45;18.55;;;10.32;;
12591;SDS011;6361;52.120;5.108;2023-04-01T03:48:12;19.83;;;10.73;;
12591;SDS011;6361;52.120;5.108;2023-04-01T03:50:37;18.33;;;10.40;;
12591;SDS011;6361;52.120;5.108;2023-04-01T03:53:03;18.60;;;9.95;;
12591;SDS011;6361;52.120;5.108;2023-04-01T03:55:28;17.30;;;10.13;;
12591;SDS011;6361;52.120;5.108;2023-04-01T03:57:53;17.50;;;10.25;;
12591;SDS011;6361;52.120;5.108;2023-04-01T04:00:19;18.33;;;10.68;;
12591;SDS011;6361;52.120;5.108;2023-04-01T04:02:44;18.98;;;11.38;;
12591;SDS011;6361;52.120;5.108;2023-04-01T04:05:12;24.48;;;11.15;;
12591;SDS011;6361;52.120;5.108;2023-04-01T04:07:38;20.38;;;11.00;;
12591;SDS011;6361;52.120;5.108;2023-04-01T04:10:04;21.23;;;11.23;;
12591;SDS011;6361;52.120;5.108;2023-04-01T04:12:30;23.20;;;11.80;;
12591;SDS011;6361;52.120;5.108;2023-04-01T04:14:55;20.85;;;10.85;;
12591;SDS011;6361;52.120;5.108;2023-04-01T04:17:20;19.35;;;10.93;;
12591;SDS011;6361;52.120;5.108;2023-04-01T04:19:46;22.10;;;10.73;;
12591;SDS011;6361;52.120;5.108;2023-04-01T04:22:11;18.35;;;9.68;;
12591;SDS011;6361;52.120;5.108;2023-04-01T04:24:37;17.52;;;9.70;;
12591;SDS011;6361;52.120;5.108;2023-04-01T04:27:03;16.00;;;9.40;;
12591;SDS011;6361;52.120;5.108;2023-04-01T04:29:29;14.93;;;9.00;;
12591;SDS011;6361;52.120;5.108;2023-04-01T04:31:54;17.52;;;9.75;;
12591;SDS011;6361;52.120;5.108;2023-04-01T04:34:20;18.00;;;9.70;;
12591;SDS011;6361;52.120;5.108;2023-04-01T04:36:47;17.25;;;9.18;;
12591;SDS011;6361;52.120;5.108;2023-04-01T04:39:14;14.57;;;8.93;;
12591;SDS011;6361;52.120;5.108;2023-04-01T04:41:39;15.98;;;8.43;;
12591;SDS011;6361;52.120;5.108;2023-04-01T04:44:06;17.85;;;9.35;;
12591;SDS011;6361;52.120;5.108;2023-04-01T04:46:31;14.55;;;8.93;;
12591;SDS011;6361;52.120;5.108;2023-04-01T04:48:57;14.85;;;8.65;;
12591;SDS011;6361;52.120;5.108;2023-04-01T04:51:22;15.63;;;9.23;;
12591;SDS011;6361;52.120;5.108;2023-04-01T04:53:48;14.90;;;9.32;;
12591;SDS011;6361;52.120;5.108;2023-04-01T04:56:17;16.48;;;9.27;;
12591;SDS011;6361;52.120;5.108;2023-04-01T04:58:46;15.20;;;9.38;;
12591;SDS011;6361;52.120;5.108;2023-04-01T05:01:12;15.88;;;10.13;;
12591;SDS011;6361;52.120;5.108;2023-04-01T05:03:39;18.15;;;10.43;;
12591;SDS011;6361;52.120;5.108;2023-04-01T05:06:05;17.88;;;10.88;;
12591;SDS011;6361;52.120;5.108;2023-04-01T05:08:32;20.23;;;11.48;;
12591;SDS011;6361;52.120;5.108;2023-04-01T05:10:58;18.10;;;10.70;;
12591;SDS011;6361;52.120;5.108;2023-04-01T05:13:23;17.88;;;11.40;;
12591;SDS011;6361;52.120;5.108;2023-04-01T05:15:49;19.33;;;11.93;;
12591;SDS011;6361;52.120;5.108;2023-04-01T05:18:14;18.92;;;11.32;;
12591;SDS011;6361;52.120;5.108;2023-04-01T05:20:45;21.65;;;12.55;;
12591;SDS011;6361;52.120;5.108;2023-04-01T05:23:11;18.48;;;10.57;;
12591;SDS011;6361;52.120;5.108;2023-04-01T05:25:37;19.50;;;11.93;;
12591;SDS011;6361;52.120;5.108;2023-04-01T05:28:03;20.52;;;11.43;;
12591;SDS011;6361;52.120;5.108;2023-04-01T05:30:28;18.65;;;12.23;;
12591;SDS011;6361;52.120;5.108;2023-04-01T05:32:54;19.35;;;11.70;;
12591;SDS011;6361;52.120;5.108;2023-04-01T05:35:19;19.52;;;11.75;;
12591;SDS011;6361;52.120;5.108;2023-04-01T05:37:45;21.60;;;12.05;;
12591;SDS011;6361;52.120;5.108;2023-04-01T05:40:10;21.00;;;12.55;;
12591;SDS011;6361;52.120;5.108;2023-04-01T05:42:36;21.90;;;11.85;;
12591;SDS011;6361;52.120;5.108;2023-04-01T05:45:01;18.75;;;11.85;;
12591;SDS011;6361;52.120;5.108;2023-04-01T05:47:26;20.05;;;11.70;;
12591;SDS011;6361;52.120;5.108;2023-04-01T05:49:52;20.80;;;12.32;;
12591;SDS011;6361;52.120;5.108;2023-04-01T05:52:17;20.23;;;11.75;;
12591;SDS011;6361;52.120;5.108;2023-04-01T05:54:42;21.15;;;12.57;;
12591;SDS011;6361;52.120;5.108;2023-04-01T05:57:08;18.90;;;10.90;;
12591;SDS011;6361;52.120;5.108;2023-04-01T05:59:33;18.50;;;10.73;;
12591;SDS011;6361;52.120;5.108;2023-04-01T06:02:00;17.20;;;10.32;;
12591;SDS011;6361;52.120;5.108;2023-04-01T06:04:26;20.63;;;10.88;;
12591;SDS011;6361;52.120;5.108;2023-04-01T06:06:55;19.60;;;10.50;;
12591;SDS011;6361;52.120;5.108;2023-04-01T06:09:26;19.70;;;11.85;;
12591;SDS011;6361;52.120;5.108;2023-04-01T06:17:12;22.10;;;11.70;;
12591;SDS011;6361;52.120;5.108;2023-04-01T06:30:57;22.92;;;10.82;;
12591;SDS011;6361;52.120;5.108;2023-04-01T06:33:36;26.85;;;11.55;;
12591;SDS011;6361;52.120;5.108;2023-04-01T06:41:48;24.05;;;12.30;;
12591;SDS011;6361;52.120;5.108;2023-04-01T06:47:31;26.90;;;13.13;;
12591;SDS011;6361;52.120;5.108;2023-04-01T06:50:47;22.67;;;11.77;;
12591;SDS011;6361;52.120;5.108;2023-04-01T06:53:21;25.25;;;12.70;;
12591;SDS011;6361;52.120;5.108;2023-04-01T06:55:55;25.58;;;13.95;;
12591;SDS011;6361;52.120;5.108;2023-04-01T06:58:24;27.92;;;14.32;;
12591;SDS011;6361;52.120;5.108;2023-04-01T07:00:53;27.45;;;13.98;;
12591;SDS011;6361;52.120;5.108;2023-04-01T07:03:26;29.23;;;14.57;;
12591;SDS011;6361;52.120;5.108;2023-04-01T07:05:54;31.13;;;14.43;;
12591;SDS011;6361;52.120;5.108;2023-04-01T07:08:23;27.63;;;14.05;;
12591;SDS011;6361;52.120;5.108;2023-04-01T07:10:58;30.48;;;15.23;;
12591;SDS011;6361;52.120;5.108;2023-04-01T07:13:28;26.50;;;13.52;;
12591;SDS011;6361;52.120;5.108;2023-04-01T07:18:48;27.27;;;14.35;;
12591;SDS011;6361;52.120;5.108;2023-04-01T07:21:27;23.55;;;13.30;;
12591;SDS011;6361;52.120;5.108;2023-04-01T07:23:57;23.83;;;12.98;;
12591;SDS011;6361;52.120;5.108;2023-04-01T07:26:26;23.58;;;12.32;;
12591;SDS011;6361;52.120;5.108;2023-04-01T07:28:52;22.15;;;11.60;;
12591;SDS011;6361;52.120;5.108;2023-04-01T07:39:17;20.77;;;10.23;;
12591;SDS011;6361;52.120;5.108;2023-04-01T07:50:29;20.70;;;10.65;;
12591;SDS011;6361;52.120;5.108;2023-04-01T08:00:47;22.52;;;11.25;;
12591;SDS011;6361;52.120;5.108;2023-04-01T08:04:06;23.70;;;12.07;;
12591;SDS011;6361;52.120;5.108;2023-04-01T08:06:25;28.38;;;12.27;;
12591;SDS011;6361;52.120;5.108;2023-04-01T08:09:15;24.73;;;12.20;;
12591;SDS011;6361;52.120;5.108;2023-04-01T08:15:10;27.20;;;12.95;;
12591;SDS011;6361;52.120;5.108;2023-04-01T08:23:16;30.83;;;13.27;;
12591;SDS011;6361;52.120;5.108;2023-04-01T08:28:37;27.65;;;14.18;;
12591;SDS011;6361;52.120;5.108;2023-04-01T08:31:13;28.25;;;13.60;;
12591;SDS011;6361;52.120;5.108;2023-04-01T08:33:45;30.05;;;15.18;;
12591;SDS011;6361;52.120;5.108;2023-04-01T08:36:12;25.13;;;13.50;;
12591;SDS011;6361;52.120;5.108;2023-04-01T08:38:44;28.30;;;13.93;;
12591;SDS011;6361;52.120;5.108;2023-04-01T08:41:33;28.48;;;14.00;;
12591;SDS011;6361;52.120;5.108;2023-04-01T08:52:26;29.73;;;14.13;;
12591;SDS011;6361;52.120;5.108;2023-04-01T08:58:01;30.48;;;13.55;;
12591;SDS011;6361;52.120;5.108;2023-04-01T09:08:48;24.05;;;12.88;;
12591;SDS011;6361;52.120;5.108;2023-04-01T09:17:13;25.02;;;12.70;;
12591;SDS011;6361;52.120;5.108;2023-04-01T09:33:38;26.35;;;12.57;;
12591;SDS011;6361;52.120;5.108;2023-04-01T09:36:45;19.45;;;10.95;;
12591;SDS011;6361;52.120;5.108;2023-04-01T09:42:14;20.48;;;11.25;;
12591;SDS011;6361;52.120;5.108;2023-04-01T09:56:01;17.98;;;10.63;;
12591;SDS011;6361;52.120;5.108;2023-04-01T10:48:06;7.53;;;4.72;;
12591;SDS011;6361;52.120;5.108;2023-04-01T11:15:31;8.57;;;5.97;;
12591;SDS011;6361;52.120;5.108;2023-04-01T11:32:02;16.88;;;7.28;;
12591;SDS011;6361;52.120;5.108;2023-04-01T11:51:59;7.10;;;5.53;;
12591;SDS011;6361;52.120;5.108;2023-04-01T12:19:54;16.05;;;10.40;;
12591;SDS011;6361;52.120;5.108;2023-04-01T12:22:40;13.18;;;10.50;;
12591;SDS011;6361;52.120;5.108;2023-04-01T12:25:22;16.00;;;10.43;;
12591;SDS011;6361;52.120;5.108;2023-04-01T12:36:35;16.25;;;10.48;;
12591;SDS011;6361;52.120;5.108;2023-04-01T12:55:50;14.30;;;9.77;;
12591;SDS011;6361;52.120;5.108;2023-04-01T13:00:58;11.32;;;7.82;;
12591;SDS011;6361;52.120;5.108;2023-04-01T13:14:04;10.70;;;7.22;;
12591;SDS011;6361;52.120;5.108;2023-04-01T13:19:49;11.15;;;7.57;;
12591;SDS011;6361;52.120;5.108;2023-04-01T13:25:39;10.75;;;7.35;;
12591;SDS011;6361;52.120;5.108;2023-04-01T13:28:25;8.50;;;6.32;;
12591;SDS011;6361;52.120;5.108;2023-04-01T13:34:00;9.55;;;6.93;;
12591;SDS011;6361;52.120;5.108;2023-04-01T13:37:27;9.57;;;6.70;;
12591;SDS011;6361;52.120;5.108;2023-04-01T13:39:35;11.52;;;8.10;;
12591;SDS011;6361;52.120;5.108;2023-04-01T13:44:56;8.33;;;6.07;;
12591;SDS011;6361;52.120;5.108;2023-04-01T14:01:52;7.00;;;6.05;;
12591;SDS011;6361;52.120;5.108;2023-04-01T14:26:28;9.55;;;7.70;;
12591;SDS011;6361;52.120;5.108;2023-04-01T14:42:49;11.68;;;7.93;;
12591;SDS011;6361;52.120;5.108;2023-04-01T14:51:15;10.00;;;8.10;;
12591;SDS011;6361;52.120;5.108;2023-04-01T14:53:43;11.13;;;7.93;;
12591;SDS011;6361;52.120;5.108;2023-04-01T14:56:34;10.63;;;8.07;;
12591;SDS011;6361;52.120;5.108;2023-04-01T14:59:07;10.77;;;7.85;;
12591;SDS011;6361;52.120;5.108;2023-04-01T15:01:37;11.55;;;8.18;;
12591;SDS011;6361;52.120;5.108;2023-04-01T15:15:39;12.60;;;8.88;;
12591;SDS011;6361;52.120;5.108;2023-04-01T15:18:18;10.25;;;8.35;;
12591;SDS011;6361;52.120;5.108;2023-04-01T15:31:21;8.80;;;7.50;;
12591;SDS011;6361;52.120;5.108;2023-04-01T15:39:36;12.25;;;8.57;;
12591;SDS011;6361;52.120;5.108;2023-04-01T15:55:42;10.68;;;7.45;;
12591;SDS011;6361;52.120;5.108;2023-04-01T15:58:21;10.15;;;7.47;;
12591;SDS011;6361;52.120;5.108;2023-04-01T16:25:07;7.93;;;6.30;;
12591;SDS011;6361;52.120;5.108;2023-04-01T16:28:09;9.02;;;7.10;;
12591;SDS011;6361;52.120;5.108;2023-04-01T16:31:43;7.43;;;6.40;;
12591;SDS011;6361;52.120;5.108;2023-04-01T16:34:08;8.68;;;6.57;;
12591;SDS011;6361;52.120;5.108;2023-04-01T16:36:47;7.07;;;5.80;;
12591;SDS011;6361;52.120;5.108;2023-04-01T16:47:40;4.50;;;3.40;;
12591;SDS011;6361;52.120;5.108;2023-04-01T16:50:18;2.35;;;2.13;;
12591;SDS011;6361;52.120;5.108;2023-04-01T17:01:04;2.83;;;2.30;;
12591;SDS011;6361;52.120;5.108;2023-04-01T17:03:40;4.82;;;3.10;;
12591;SDS011;6361;52.120;5.108;2023-04-01T17:11:55;2.55;;;2.35;;
12591;SDS011;6361;52.120;5.108;2023-04-01T17:17:24;3.72;;;3.35;;
12591;SDS011;6361;52.120;5.108;2023-04-01T17:34:31;4.28;;;3.85;;
12591;SDS011;6361;52.120;5.108;2023-04-01T17:37:19;3.92;;;3.53;;
12591;SDS011;6361;52.120;5.108;2023-04-01T17:40:20;5.57;;;4.97;;
12591;SDS011;6361;52.120;5.108;2023-04-01T17:45:53;3.40;;;3.10;;
12591;SDS011;6361;52.120;5.108;2023-04-01T18:02:32;3.70;;;3.25;;
12591;SDS011;6361;52.120;5.108;2023-04-01T18:21:06;3.30;;;3.00;;
12591;SDS011;6361;52.120;5.108;2023-04-01T18:27:01;3.88;;;3.33;;
12591;SDS011;6361;52.120;5.108;2023-04-01T18:32:24;3.15;;;2.85;;
12591;SDS011;6361;52.120;5.108;2023-04-01T18:37:24;3.45;;;3.15;;
12591;SDS011;6361;52.120;5.108;2023-04-01T18:39:53;3.60;;;3.30;;
12591;SDS011;6361;52.120;5.108;2023-04-01T18:42:41;3.70;;;3.40;;
12591;SDS011;6361;52.120;5.108;2023-04-01T18:45:22;3.05;;;2.85;;
12591;SDS011;6361;52.120;5.108;2023-04-01T18:50:57;4.50;;;4.00;;
12591;SDS011;6361;52.120;5.108;2023-04-01T18:53:28;5.40;;;4.45;;
12591;SDS011;6361;52.120;5.108;2023-04-01T18:56:11;5.40;;;4.00;;
12591;SDS011;6361;52.120;5.108;2023-04-01T18:58:45;4.95;;;3.70;;
12591;SDS011;6361;52.120;5.108;2023-04-01T19:04:36;4.38;;;3.97;;
12591;SDS011;6361;52.120;5.108;2023-04-01T19:09:49;4.60;;;4.05;;
12591;SDS011;6361;52.120;5.108;2023-04-01T19:12:30;4.38;;;3.97;;
12591;SDS011;6361;52.120;5.108;2023-04-01T19:17:50;5.55;;;5.05;;
12591;SDS011;6361;52.120;5.108;2023-04-01T19:20:43;5.22;;;4.75;;
12591;SDS011;6361;52.120;5.108;2023-04-01T19:23:31;6.10;;;5.50;;
12591;SDS011;6361;52.120;5.108;2023-04-01T19:26:11;5.85;;;5.30;;
12591;SDS011;6361;52.120;5.108;2023-04-01T19:31:38;8.63;;;7.00;;
12591;SDS011;6361;52.120;5.108;2023-04-01T19:34:19;10.93;;;7.18;;
12591;SDS011;6361;52.120;5.108;2023-04-01T19:36:55;7.32;;;6.63;;
12591;SDS011;6361;52.120;5.108;2023-04-01T19:39:28;8.18;;;6.85;;
12591;SDS011;6361;52.120;5.108;2023-04-01T19:47:36;8.52;;;6.85;;
12591;SDS011;6361;52.120;5.108;2023-04-01T19:52:54;9.45;;;7.05;;
12591;SDS011;6361;52.120;5.108;2023-04-01T20:01:20;10.30;;;7.63;;
12591;SDS011;6361;52.120;5.108;2023-04-01T20:14:51;8.73;;;6.72;;
12591;SDS011;6361;52.120;5.108;2023-04-01T20:19:51;9.63;;;7.40;;
12591;SDS011;6361;52.120;5.108;2023-04-01T20:22:24;10.20;;;8.10;;
12591;SDS011;6361;52.120;5.108;2023-04-01T20:27:47;9.13;;;7.32;;
12591;SDS011;6361;52.120;5.108;2023-04-01T20:30:26;9.25;;;7.50;;
12591;SDS011;6361;52.120;5.108;2023-04-01T20:41:26;9.50;;;7.78;;
12591;SDS011;6361;52.120;5.108;2023-04-01T20:49:38;9.35;;;7.35;;
12591;SDS011;6361;52.120;5.108;2023-04-01T20:54:54;8.82;;;7.05;;
12591;SDS011;6361;52.120;5.108;2023-04-01T20:57:25;9.05;;;7.40;;
12591;SDS011;6361;52.120;5.108;2023-04-01T21:11:05;8.23;;;6.55;;
12591;SDS011;6361;52.120;5.108;2023-04-01T21:22:00;9.55;;;6.88;;
12591;SDS011;6361;52.120;5.108;2023-04-01T21:27:49;8.38;;;6.70;;
12591;SDS011;6361;52.120;5.108;2023-04-01T21:36:28;9.25;;;7.35;;
12591;SDS011;6361;52.120;5.108;2023-04-01T21:44:42;11.02;;;7.78;;
12591;SDS011;6361;52.120;5.108;2023-04-01T22:06:41;9.93;;;8.07;;
12591;SDS011;6361;52.120;5.108;2023-04-01T22:11:41;9.57;;;7.63;;
12591;SDS011;6361;52.120;5.108;2023-04-01T22:14:25;11.13;;;7.70;;
12591;SDS011;6361;52.120;5.108;2023-04-01T22:16:57;10.25;;;7.85;;
12591;SDS011;6361;52.120;5.108;2023-04-01T22:19:40;10.20;;;8.05;;
12591;SDS011;6361;52.120;5.108;2023-04-01T22:24:48;11.33;;;7.83;;
12591;SDS011;6361;52.120;5.108;2023-04-01T22:28:06;10.65;;;7.70;;
12591;SDS011;6361;52.120;5.108;2023-04-01T22:33:14;10.50;;;8.30;;
12591;SDS011;6361;52.120;5.108;2023-04-01T22:36:12;13.30;;;8.60;;
12591;SDS011;6361;52.120;5.108;2023-04-01T22:43:58;12.23;;;8.40;;
12591;SDS011;6361;52.120;5.108;2023-04-01T22:51:56;12.55;;;8.90;;
12591;SDS011;6361;52.120;5.108;2023-04-01T22:54:37;13.80;;;9.13;;
12591;SDS011;6361;52.120;5.108;2023-04-01T22:57:11;12.20;;;9.23;;
12591;SDS011;6361;52.120;5.108;2023-04-01T23:02:33;14.70;;;8.90;;
12591;SDS011;6361;52.120;5.108;2023-04-01T23:05:17;12.40;;;9.25;;
12591;SDS011;6361;52.120;5.108;2023-04-01T23:10:17;13.90;;;9.00;;
12591;SDS011;6361;52.120;5.108;2023-04-01T23:12:49;14.70;;;9.25;;
12591;SDS011;6361;52.120;5.108;2023-04-01T23:15:16;14.10;;;9.93;;
12591;SDS011;6361;52.120;5.108;2023-04-01T23:23:36;14.60;;;9.40;;
12591;SDS011;6361;52.120;5.108;2023-04-01T23:26:15;12.45;;;9.55;;
12591;SDS011;6361;52.120;5.108;2023-04-01T23:28:53;14.15;;;9.35;;
12591;SDS011;6361;52.120;5.108;2023-04-01T23:31:26;12.13;;;9.10;;
12591;SDS011;6361;52.120;5.108;2023-04-01T23:33:55;12.23;;;9.20;;
12591;SDS011;6361;52.120;5.108;2023-04-01T23:36:21;14.73;;;9.38;;
12591;SDS011;6361;52.120;5.108;2023-04-01T23:38:47;13.43;;;9.57;;
12591;SDS011;6361;52.120;5.108;2023-04-01T23:41:23;14.18;;;9.70;;
12591;SDS011;6361;52.120;5.108;2023-04-01T23:44:10;13.75;;;9.48;;
12591;SDS011;6361;52.120;5.108;2023-04-01T23:46:37;14.45;;;10.02;;
12591;SDS011;6361;52.120;5.108;2023-04-01T23:49:04;15.77;;;10.50;;
12591;SDS011;6361;52.120;5.108;2023-04-01T23:51:39;15.80;;;10.10;;
12591;SDS011;6361;52.120;5.108;2023-04-01T23:54:18;13.38;;;9.70;;
12591;SDS011;6361;52.120;5.108;2023-04-01T23:56:53;14.88;;;10.02;;
12591;SDS011;6361;52.120;5.108;2023-04-01T23:59:24;14.60;;;10.38;;
